createdAt,value
2018-05-25T00:00:36.814Z,16.78
2018-05-25T00:03:05.616Z,16.79
2018-05-25T00:05:34.661Z,16.78
2018-05-25T00:08:02.937Z,16.87
2018-05-25T00:10:31.243Z,16.97
2018-05-25T00:13:00.380Z,16.89
2018-05-25T00:15:29.457Z,16.75
2018-05-25T00:17:57.725Z,16.68
2018-05-25T00:20:25.984Z,16.63
2018-05-25T00:22:54.301Z,16.66
2018-05-25T00:25:22.599Z,16.70
2018-05-25T00:27:50.948Z,16.74
2018-05-25T00:30:19.252Z,16.69
2018-05-25T00:32:47.553Z,16.66
2018-05-25T00:35:15.827Z,16.68
2018-05-25T00:37:44.101Z,16.71
2018-05-25T00:40:12.822Z,16.72
2018-05-25T00:42:41.106Z,16.78
2018-05-25T00:45:09.394Z,16.76
2018-05-25T00:47:37.679Z,16.72
2018-05-25T00:50:05.967Z,16.60
2018-05-25T00:52:34.275Z,16.56
2018-05-25T00:55:20.284Z,16.64
2018-05-25T00:57:50.534Z,16.58
2018-05-25T01:00:18.845Z,16.57
2018-05-25T01:02:47.128Z,16.52
2018-05-25T01:05:17.096Z,16.55
2018-05-25T01:07:46.895Z,16.54
2018-05-25T01:10:15.180Z,16.49
2018-05-25T01:12:43.552Z,16.34
2018-05-25T01:15:11.828Z,16.30
2018-05-25T01:17:40.138Z,16.29
2018-05-25T01:20:08.416Z,16.34
2018-05-25T01:22:36.746Z,16.33
2018-05-25T01:25:05.049Z,16.35
2018-05-25T01:27:33.316Z,16.35
2018-05-25T01:30:01.624Z,16.40
2018-05-25T01:32:29.905Z,16.43
2018-05-25T01:34:58.224Z,16.53
2018-05-25T01:37:26.507Z,16.56
2018-05-25T01:39:55.557Z,16.48
2018-05-25T01:42:23.858Z,16.49
2018-05-25T01:44:52.918Z,16.48
2018-05-25T01:47:21.260Z,16.49
2018-05-25T01:49:49.572Z,16.51
2018-05-25T01:52:17.869Z,16.60
2018-05-25T01:54:46.146Z,16.66
2018-05-25T01:57:14.435Z,16.62
2018-05-25T01:59:42.719Z,16.53
2018-05-25T02:02:11.005Z,16.45
2018-05-25T02:04:39.294Z,16.43
2018-05-25T02:07:08.363Z,16.54
2018-05-25T02:09:36.649Z,16.46
2018-05-25T02:12:05.701Z,16.45
2018-05-25T02:14:33.986Z,16.50
2018-05-25T02:17:02.261Z,16.54
2018-05-25T02:19:30.555Z,16.58
2018-05-25T02:21:58.833Z,16.56
2018-05-25T02:24:29.114Z,16.52
2018-05-25T02:26:58.160Z,16.50
2018-05-25T02:29:26.457Z,16.42
2018-05-25T02:31:54.756Z,16.46
2018-05-25T02:34:23.814Z,16.55
2018-05-25T02:36:52.132Z,16.58
2018-05-25T02:39:20.425Z,16.58
2018-05-25T02:41:48.728Z,16.56
2018-05-25T02:44:17.984Z,16.59
2018-05-25T02:46:47.052Z,16.59
2018-05-25T02:49:15.356Z,16.62
2018-05-25T02:51:44.388Z,16.63
2018-05-25T02:54:12.682Z,16.64
2018-05-25T02:56:40.984Z,16.62
2018-05-25T02:59:09.253Z,16.66
2018-05-25T03:01:40.491Z,16.68
2018-05-25T03:04:09.538Z,16.70
2018-05-25T03:06:37.820Z,16.56
2018-05-25T03:09:06.942Z,16.52
2018-05-25T03:11:35.222Z,16.53
2018-05-25T03:14:03.536Z,16.58
2018-05-25T03:16:31.819Z,16.53
2018-05-25T03:19:00.092Z,16.50
2018-05-25T03:21:28.405Z,16.46
2018-05-25T03:23:56.686Z,16.47
2018-05-25T03:26:25.025Z,16.46
2018-05-25T03:28:53.316Z,16.56
2018-05-25T03:31:21.625Z,16.57
2018-05-25T03:33:49.921Z,16.53
2018-05-25T03:36:18.209Z,16.60
2018-05-25T03:38:46.523Z,16.60
2018-05-25T03:41:14.796Z,16.58
2018-05-25T03:43:43.105Z,16.58
2018-05-25T03:46:12.373Z,16.69
2018-05-25T03:48:40.823Z,16.59
2018-05-25T03:51:09.128Z,16.58
2018-05-25T03:53:39.324Z,16.62
2018-05-25T03:56:07.602Z,16.67
2018-05-25T03:58:53.529Z,16.68
2018-05-25T04:01:39.357Z,16.67
2018-05-25T04:04:07.631Z,16.56
2018-05-25T04:06:35.951Z,16.53
2018-05-25T04:09:08.753Z,16.59
2018-05-25T04:11:37.018Z,16.52
2018-05-25T04:14:05.334Z,16.47
2018-05-25T04:16:33.606Z,16.41
2018-05-25T04:19:01.911Z,16.45
2018-05-25T04:21:30.224Z,16.44
2018-05-25T04:23:58.501Z,16.41
2018-05-25T04:26:26.806Z,16.38
2018-05-25T04:28:55.085Z,16.37
2018-05-25T04:31:23.464Z,16.45
2018-05-25T04:33:51.816Z,16.56
2018-05-25T04:36:20.098Z,16.55
2018-05-25T04:38:49.161Z,16.48
2018-05-25T04:41:17.454Z,16.41
2018-05-25T04:43:45.780Z,16.45
2018-05-25T04:46:14.084Z,16.40
2018-05-25T04:48:42.381Z,16.41
2018-05-25T04:51:14.485Z,16.36
2018-05-25T04:53:42.773Z,16.29
2018-05-25T04:56:11.123Z,16.33
2018-05-25T04:58:39.435Z,16.33
2018-05-25T05:01:07.705Z,16.36
2018-05-25T05:03:37.950Z,16.30
2018-05-25T05:06:07.013Z,16.38
2018-05-25T05:08:35.344Z,16.40
2018-05-25T05:11:03.631Z,16.38
2018-05-25T05:13:32.971Z,16.34
2018-05-25T05:16:01.268Z,16.34
2018-05-25T05:18:29.604Z,16.36
2018-05-25T05:20:58.834Z,16.43
2018-05-25T05:23:27.127Z,16.43
2018-05-25T05:25:55.827Z,16.47
2018-05-25T05:28:24.872Z,16.46
2018-05-25T05:30:53.143Z,16.46
2018-05-25T05:33:21.440Z,16.41
2018-05-25T05:35:50.507Z,16.39
2018-05-25T05:38:18.932Z,16.38
2018-05-25T05:40:47.197Z,16.45
2018-05-25T05:43:15.471Z,16.47
2018-05-25T05:45:43.768Z,16.53
2018-05-25T05:48:12.036Z,16.55
2018-05-25T05:50:40.348Z,16.57
2018-05-25T05:53:08.640Z,16.62
2018-05-25T05:55:36.924Z,16.56
2018-05-25T05:58:05.231Z,16.60
2018-05-25T06:00:33.509Z,16.71
2018-05-25T06:03:01.865Z,16.73
2018-05-25T06:05:30.142Z,16.69
2018-05-25T06:07:58.416Z,16.72
2018-05-25T06:10:26.704Z,16.68
2018-05-25T06:12:54.978Z,16.83
2018-05-25T06:15:23.289Z,16.87
2018-05-25T06:17:51.564Z,16.91
2018-05-25T06:20:19.852Z,16.93
2018-05-25T06:22:48.175Z,16.91
2018-05-25T06:25:17.236Z,16.88
2018-05-25T06:27:45.543Z,16.93
2018-05-25T06:30:13.837Z,16.87
2018-05-25T06:32:42.101Z,16.87
2018-05-25T06:35:11.223Z,16.91
2018-05-25T06:37:39.539Z,16.94
2018-05-25T06:40:07.845Z,17.06
2018-05-25T06:42:36.921Z,17.15
2018-05-25T06:45:05.231Z,17.14
2018-05-25T06:47:33.569Z,17.23
2018-05-25T06:50:01.892Z,17.22
2018-05-25T06:52:30.194Z,17.26
2018-05-25T06:54:58.475Z,17.40
2018-05-25T06:57:26.801Z,17.41
2018-05-25T06:59:55.229Z,17.50
2018-05-25T07:02:23.565Z,17.57
2018-05-25T07:04:51.847Z,17.62
2018-05-25T07:07:20.143Z,17.67
2018-05-25T07:09:49.195Z,17.73
2018-05-25T07:12:17.496Z,17.83
2018-05-25T07:14:45.822Z,17.90
2018-05-25T07:17:15.021Z,17.86
2018-05-25T07:19:43.318Z,17.85
2018-05-25T07:22:11.613Z,17.88
2018-05-25T07:24:39.891Z,17.82
2018-05-25T07:27:08.191Z,17.89
2018-05-25T07:29:36.485Z,17.93
2018-05-25T07:32:04.762Z,17.93
2018-05-25T07:34:33.850Z,18.07
2018-05-25T07:37:02.144Z,18.02
2018-05-25T07:39:30.447Z,18.15
2018-05-25T07:41:58.740Z,18.12
2018-05-25T07:44:27.008Z,18.13
2018-05-25T07:46:55.319Z,18.13
2018-05-25T07:49:23.697Z,18.13
2018-05-25T07:51:52.015Z,18.25
2018-05-25T07:54:20.322Z,18.33
2018-05-25T07:56:48.588Z,18.40
2018-05-25T07:59:16.888Z,18.50
2018-05-25T08:01:45.163Z,18.50
2018-05-25T08:04:13.436Z,18.60
2018-05-25T08:06:41.743Z,18.74
2018-05-25T08:09:10.055Z,18.80
2018-05-25T08:11:38.371Z,18.88
2018-05-25T08:14:06.629Z,18.88
2018-05-25T08:16:34.916Z,18.95
2018-05-25T08:19:03.196Z,18.93
2018-05-25T08:21:31.476Z,18.94
2018-05-25T08:23:59.793Z,18.94
2018-05-25T08:26:28.071Z,18.98
2018-05-25T08:28:56.348Z,19.03
2018-05-25T08:31:24.656Z,18.98
2018-05-25T08:33:53.701Z,19.00
2018-05-25T08:36:21.981Z,19.01
2018-05-25T08:38:50.261Z,19.01
2018-05-25T08:41:18.533Z,19.09
2018-05-25T08:43:46.833Z,19.27
2018-05-25T08:46:16.020Z,19.39
2018-05-25T08:48:44.332Z,19.47
2018-05-25T08:51:13.383Z,19.48
2018-05-25T08:53:41.659Z,19.48
2018-05-25T08:56:09.935Z,19.54
2018-05-25T08:58:38.206Z,19.55
2018-05-25T09:01:06.509Z,19.62
2018-05-25T09:03:34.800Z,19.67
2018-05-25T09:06:03.137Z,19.73
2018-05-25T09:08:31.420Z,19.81
2018-05-25T09:10:59.711Z,19.82
2018-05-25T09:13:28.010Z,19.95
2018-05-25T09:15:56.303Z,20.01
2018-05-25T09:18:25.361Z,20.03
2018-05-25T09:20:53.646Z,20.11
2018-05-25T09:23:21.967Z,20.12
2018-05-25T09:25:51.106Z,20.19
2018-05-25T09:28:19.378Z,20.23
2018-05-25T09:30:47.679Z,20.32
2018-05-25T09:33:15.977Z,20.37
2018-05-25T09:35:44.265Z,20.44
2018-05-25T09:38:13.336Z,20.49
2018-05-25T09:40:41.621Z,20.58
2018-05-25T09:43:09.945Z,20.62
2018-05-25T09:45:38.206Z,20.68
2018-05-25T09:48:07.263Z,20.68
2018-05-25T09:50:35.555Z,20.73
2018-05-25T09:53:03.829Z,20.81
2018-05-25T09:55:32.122Z,20.80
2018-05-25T09:58:00.434Z,20.78
2018-05-25T10:00:28.730Z,20.84
2018-05-25T10:02:56.992Z,20.92
2018-05-25T10:05:25.302Z,20.97
2018-05-25T10:07:53.594Z,20.97
2018-05-25T10:10:23.811Z,20.99
2018-05-25T10:12:53.708Z,21.08
2018-05-25T10:15:22.010Z,21.30
2018-05-25T10:17:50.352Z,21.43
2018-05-25T10:20:18.595Z,21.48
2018-05-25T10:22:47.645Z,21.60
2018-05-25T10:25:15.910Z,21.70
2018-05-25T10:27:46.149Z,21.76
2018-05-25T10:30:14.454Z,21.85
2018-05-25T10:32:42.736Z,21.95
2018-05-25T10:35:11.866Z,21.95
2018-05-25T10:37:40.129Z,21.95
2018-05-25T10:40:08.404Z,21.97
2018-05-25T10:42:37.471Z,22.05
2018-05-25T10:45:05.756Z,22.13
2018-05-25T10:47:34.821Z,22.18
2018-05-25T10:50:03.126Z,22.22
2018-05-25T10:52:31.400Z,22.24
2018-05-25T10:54:59.706Z,22.25
2018-05-25T10:57:28.733Z,22.25
2018-05-25T10:59:57.035Z,22.29
2018-05-25T11:02:25.308Z,22.24
2018-05-25T11:04:53.590Z,22.21
2018-05-25T11:07:21.868Z,22.19
2018-05-25T11:09:50.136Z,22.21
2018-05-25T11:12:18.423Z,22.27
2018-05-25T11:14:46.689Z,22.32
2018-05-25T11:17:14.976Z,22.45
2018-05-25T11:19:43.276Z,22.60
2018-05-25T11:22:11.575Z,22.79
2018-05-25T11:24:40.618Z,22.84
2018-05-25T11:27:08.911Z,22.90
2018-05-25T11:29:37.196Z,23.01
2018-05-25T11:32:05.477Z,22.98
2018-05-25T11:34:33.784Z,23.09
2018-05-25T11:37:02.049Z,23.12
2018-05-25T11:39:31.287Z,23.17
2018-05-25T11:41:59.585Z,23.22
2018-05-25T11:44:27.848Z,23.35
2018-05-25T11:46:56.132Z,23.46
2018-05-25T11:49:24.842Z,23.47
2018-05-25T11:51:53.138Z,23.43
2018-05-25T11:54:21.416Z,23.57
2018-05-25T11:56:49.701Z,23.60
2018-05-25T11:59:17.981Z,23.62
2018-05-25T12:01:46.331Z,23.63
2018-05-25T12:04:14.578Z,23.59
2018-05-25T12:06:42.870Z,23.68
2018-05-25T12:09:11.236Z,23.79
2018-05-25T12:11:39.526Z,23.86
2018-05-25T12:14:07.804Z,24.01
2018-05-25T12:16:36.067Z,24.10
2018-05-25T12:19:06.321Z,24.18
2018-05-25T12:21:34.603Z,24.12
2018-05-25T12:24:02.881Z,24.11
2018-05-25T12:26:31.179Z,24.10
2018-05-25T12:28:59.444Z,24.21
2018-05-25T12:31:27.758Z,24.26
2018-05-25T12:33:56.033Z,24.27
2018-05-25T12:36:25.837Z,24.35
2018-05-25T12:38:54.135Z,24.41
2018-05-25T12:41:22.440Z,24.44
2018-05-25T12:43:50.714Z,24.47
2018-05-25T12:46:18.992Z,24.51
2018-05-25T12:48:47.295Z,24.60
2018-05-25T12:51:15.545Z,24.60
2018-05-25T12:53:43.819Z,24.62
2018-05-25T12:56:12.110Z,24.67
2018-05-25T12:58:40.362Z,24.76
2018-05-25T13:01:09.704Z,24.80
2018-05-25T13:03:37.997Z,24.87
2018-05-25T13:06:06.289Z,24.97
2018-05-25T13:08:34.562Z,25.01
2018-05-25T13:11:02.873Z,25.17
2018-05-25T13:13:31.130Z,25.28
2018-05-25T13:16:00.171Z,25.37
2018-05-25T13:18:28.455Z,25.48
2018-05-25T13:20:56.734Z,25.47
2018-05-25T13:23:25.009Z,25.52
2018-05-25T13:25:53.301Z,25.57
2018-05-25T13:28:21.589Z,25.67
2018-05-25T13:30:49.966Z,25.71
2018-05-25T13:33:18.325Z,25.81
2018-05-25T13:35:46.598Z,25.85
2018-05-25T13:38:14.882Z,25.99
2018-05-25T13:40:43.147Z,26.14
2018-05-25T13:43:11.495Z,26.28
2018-05-25T13:45:40.534Z,26.45
2018-05-25T13:48:08.782Z,26.40
2018-05-25T13:50:37.069Z,26.39
2018-05-25T13:53:05.348Z,26.27
2018-05-25T13:55:37.300Z,26.41
2018-05-25T13:58:07.659Z,26.22
2018-05-25T14:00:35.944Z,26.43
2018-05-25T14:03:04.246Z,26.60
2018-05-25T14:05:32.527Z,26.60
2018-05-25T14:08:01.045Z,26.85
2018-05-25T14:10:29.333Z,26.99
2018-05-25T14:12:57.621Z,26.89
2018-05-25T14:15:25.942Z,26.76
2018-05-25T14:17:54.219Z,26.52
2018-05-25T14:20:22.505Z,26.38
2018-05-25T14:22:50.769Z,25.99
2018-05-25T14:25:19.045Z,25.87
2018-05-25T14:27:47.380Z,25.85
2018-05-25T14:30:15.666Z,25.85
2018-05-25T14:32:43.955Z,25.78
2018-05-25T14:35:12.231Z,25.68
2018-05-25T14:37:40.499Z,25.67
2018-05-25T14:40:08.812Z,25.65
2018-05-25T14:42:37.076Z,25.62
2018-05-25T14:45:05.364Z,25.42
2018-05-25T14:47:33.642Z,25.40
2018-05-25T14:50:01.935Z,25.42
2018-05-25T14:52:30.305Z,25.44
2018-05-25T14:54:58.577Z,25.29
2018-05-25T14:59:56.246Z,25.15
2018-05-25T15:02:24.530Z,25.07
2018-05-25T15:04:52.817Z,24.90
2018-05-25T15:07:21.089Z,24.84
2018-05-25T15:09:49.351Z,24.65
2018-05-25T15:12:18.783Z,24.45
2018-05-25T15:14:47.081Z,24.43
2018-05-25T15:17:15.353Z,24.20
2018-05-25T15:19:43.634Z,24.01
2018-05-25T15:22:11.947Z,23.92
2018-05-25T15:24:40.796Z,23.85
2018-05-25T15:27:09.972Z,23.68
2018-05-25T15:29:38.249Z,23.65
2018-05-25T15:32:06.564Z,23.49
2018-05-25T15:34:34.842Z,23.43
2018-05-25T15:37:03.879Z,23.35
2018-05-25T15:39:37.888Z,23.27
2018-05-25T15:42:06.176Z,23.34
2018-05-25T15:44:34.463Z,23.49
2018-05-25T15:47:02.786Z,23.59
2018-05-25T15:49:32.147Z,23.57
2018-05-25T15:52:00.503Z,23.79
2018-05-25T15:54:29.781Z,23.87
2018-05-25T15:56:58.055Z,23.87
2018-05-25T15:59:27.095Z,23.93
2018-05-25T16:01:55.414Z,23.86
2018-05-25T16:04:24.432Z,23.87
2018-05-25T16:06:52.684Z,23.90
2018-05-25T16:09:21.069Z,23.89
2018-05-25T16:11:50.147Z,24.01
2018-05-25T16:14:18.461Z,23.93
2018-05-25T16:16:46.724Z,23.86
2018-05-25T16:19:14.989Z,23.80
2018-05-25T16:21:43.246Z,23.75
2018-05-25T16:24:11.533Z,23.72
2018-05-25T16:26:39.812Z,23.84
2018-05-25T16:29:08.615Z,23.71
2018-05-25T16:31:36.904Z,23.63
2018-05-25T16:34:06.110Z,23.51
2018-05-25T16:36:34.398Z,23.54
2018-05-25T16:39:02.671Z,23.60
2018-05-25T16:41:31.937Z,23.59
2018-05-25T16:44:00.334Z,23.49
2018-05-25T16:46:28.679Z,23.43
2018-05-25T16:48:57.715Z,23.38
2018-05-25T16:51:26.001Z,23.34
2018-05-25T16:53:54.293Z,23.37
2018-05-25T16:56:23.045Z,23.40
2018-05-25T16:58:51.345Z,23.21
2018-05-25T17:01:19.612Z,23.37
2018-05-25T17:03:50.141Z,23.40
2018-05-25T17:06:18.453Z,23.42
2018-05-25T17:08:46.785Z,23.46
2018-05-25T17:11:15.101Z,23.49
2018-05-25T17:13:44.429Z,23.41
2018-05-25T17:16:12.745Z,23.44
2018-05-25T17:18:41.035Z,23.40
2018-05-25T17:21:09.344Z,23.46
2018-05-25T17:23:38.398Z,23.44
2018-05-25T17:26:06.686Z,23.40
2018-05-25T17:28:34.972Z,23.30
2018-05-25T17:31:03.301Z,23.29
2018-05-25T17:33:31.581Z,23.24
2018-05-25T17:36:00.976Z,23.12
2018-05-25T17:38:29.260Z,23.06
2018-05-25T17:40:57.554Z,23.08
2018-05-25T17:43:25.835Z,23.07
2018-05-25T17:45:54.124Z,23.08
2018-05-25T17:48:23.193Z,23.13
2018-05-25T17:50:51.471Z,23.08
2018-05-25T17:53:19.755Z,23.06
2018-05-25T17:55:48.048Z,23.03
2018-05-25T17:58:18.674Z,23.03
2018-05-25T18:00:46.977Z,23.06
2018-05-25T18:03:15.248Z,23.09
2018-05-25T18:05:43.516Z,23.04
2018-05-25T18:08:11.815Z,23.08
2018-05-25T18:10:40.097Z,23.11
2018-05-25T18:13:09.161Z,23.07
2018-05-25T18:15:37.426Z,23.02
2018-05-25T18:18:05.685Z,23.00
2018-05-25T18:20:34.093Z,22.92
2018-05-25T18:23:02.465Z,22.90
2018-05-25T18:25:32.516Z,22.82
2018-05-25T18:28:00.808Z,22.78
2018-05-25T18:30:29.876Z,22.79
2018-05-25T18:32:58.496Z,22.75
2018-05-25T18:35:27.517Z,22.71
2018-05-25T18:37:55.798Z,22.60
2018-05-25T18:40:24.070Z,22.51
2018-05-25T18:42:52.379Z,22.51
2018-05-25T18:45:20.679Z,22.41
2018-05-25T19:05:54.460Z,21.86
2018-05-25T19:26:26.664Z,21.22
2018-05-25T19:46:58.864Z,20.41
2018-05-25T20:07:35.374Z,19.76
2018-05-25T20:28:10.328Z,19.19
2018-05-25T20:48:46.861Z,18.67
2018-05-25T21:09:21.797Z,18.35
2018-05-25T21:29:53.997Z,18.00
2018-05-25T21:50:28.496Z,17.60
2018-05-25T22:11:00.549Z,17.43
2018-05-25T22:49:51.782Z,16.64
2018-05-25T23:10:25.989Z,16.53
2018-05-25T23:30:56.945Z,16.31
2018-05-25T23:51:30.393Z,16.05
